Time;durP1;ratioP1;P1;durP2;ratioP2;P2;SDS_P1;SDS_P2;PMS_P1;PMS_P2;Temp;Humidity;BMP_temperature;BMP_pressure;BME280_temperature;BME280_humidity;BME280_pressure;Samples;Min_cycle;Max_cycle;Signal;HPM_P1;HPM_P2
2021/12/26 00:01:00;;;;;;;;;;;;;;;;;;;;;
2021/12/26 00:03:47;;;;;;;;;;;;;;;;;;;;;
2021/12/26 00:10:22;;;;;;;2.83;2.70;;;;;;;10.96;82.34;98798.19;6226987;22;20599;-78
2021/12/26 00:13:12;;;;;;;2.42;2.33;;;;;;;10.96;82.67;98803.66;6229398;23;20011;-75
2021/12/26 00:16:07;;;;;;;1.98;1.88;;;;;;;11.06;82.36;98812.75;6245348;22;20014;-77
2021/12/26 00:18:46;;;;;;;;;;;;;;;;;;;;;
2021/12/26 00:21:22;;;;;;;1.75;1.65;;;;;;;10.95;81.95;98804.78;6270191;22;20438;-77
2021/12/26 00:23:59;;;;;;;;;;;;;;;;;;;;;
2021/12/26 00:26:29;;;;;;;1.52;1.50;;;;;;;11.02;82.17;98814.50;6252927;22;20502;-77
2021/12/26 00:28:58;;;;;;;2.30;2.20;;;;;;;11.03;81.95;98814.19;6199524;22;20008;-78
2021/12/26 00:31:26;;;;;;;2.05;1.95;;;;;;;11.07;82.42;98817.09;6249845;22;20083;-75
2021/12/26 00:36:44;;;;;;;1.92;1.83;;;;;;;10.92;81.96;98783.53;6252113;22;20004;-78
2021/12/26 00:39:17;;;;;;;1.45;1.40;;;;;;;11.03;82.48;98802.44;6250790;22;20011;-78
2021/12/26 00:41:48;;;;;;;2.03;1.75;;;;;;;11.13;82.06;98813.16;6252670;22;20022;-79
2021/12/26 00:44:48;;;;;;;;;;;;;;;;;;;;;
2021/12/26 00:47:56;;;;;;;;;;;;;;;;;;;;;
2021/12/26 00:50:32;;;;;;;1.75;1.65;;;;;;;11.17;82.09;98808.69;6218187;22;20088;-76
2021/12/26 00:53:02;;;;;;;2.17;2.08;;;;;;;11.13;82.10;98802.19;6247537;22;20031;-76
2021/12/26 00:55:35;;;;;;;2.47;2.28;;;;;;;11.17;82.13;98793.06;6278280;22;20063;-77
2021/12/26 00:58:14;;;;;;;2.20;2.10;;;;;;;11.17;82.10;98801.28;6224321;22;20075;-76
2021/12/26 01:00:52;;;;;;;2.03;1.88;;;;;;;11.16;81.98;98790.63;6251571;22;20010;-76
2021/12/26 01:06:20;;;;;;;2.35;2.10;;;;;;;11.23;82.17;98780.06;6258097;22;20006;-77
2021/12/26 01:09:21;;;;;;;;;;;;;;;;;;;;;
2021/12/26 01:11:53;;;;;;;2.33;2.10;;;;;;;11.29;82.40;98778.03;6276378;22;20091;-78
2021/12/26 01:14:26;;;;;;;2.42;2.33;;;;;;;11.31;81.83;98775.78;6250500;22;20008;-75
2021/12/26 01:17:04;;;;;;;2.38;2.28;;;;;;;11.37;82.47;98779.19;6250091;22;20008;-76
2021/12/26 01:19:55;;;;;;;3.10;2.55;;;;;;;11.34;81.73;98786.09;6248855;22;20091;-75
2021/12/26 01:22:26;;;;;;;3.38;2.78;;;;;;;11.41;81.86;98791.13;6275222;22;20023;-75
2021/12/26 01:24:55;;;;;;;3.03;2.72;;;;;;;11.48;82.15;98802.47;6246136;22;20034;-74
2021/12/26 01:27:23;;;;;;;2.75;2.53;;;;;;;11.48;82.27;98797.78;6248334;22;20096;-75
2021/12/26 01:29:49;;;;;;;6.70;3.97;;;;;;;11.42;82.03;98792.75;6221667;22;20008;-74
2021/12/26 01:32:14;;;;;;;4.13;3.72;;;;;;;11.44;82.10;98788.56;6243682;22;20087;-74
2021/12/26 01:34:40;;;;;;;3.22;3.03;;;;;;;11.38;82.04;98787.09;6243957;22;20034;-74
2021/12/26 01:37:08;;;;;;;3.92;3.28;;;;;;;11.43;81.77;98786.16;6271501;22;20425;-75
2021/12/26 01:39:36;;;;;;;7.47;3.58;;;;;;;11.39;82.12;98791.44;6272151;22;20007;-75
2021/12/26 01:42:10;;;;;;;3.40;3.10;;;;;;;11.44;82.54;98793.25;6272715;22;19996;-74
2021/12/26 01:44:38;;;;;;;2.97;2.15;;;;;;;11.41;82.00;98791.13;6243410;22;20098;-76
2021/12/26 01:47:04;;;;;;;2.40;2.30;;;;;;;11.41;82.86;98793.88;6245643;22;20441;-76
2021/12/26 01:49:31;;;;;;;2.60;2.50;;;;;;;11.48;82.25;98802.47;6274549;22;20082;-77
2021/12/26 01:52:00;;;;;;;3.28;3.08;;;;;;;11.48;82.77;98792.31;6274828;22;20014;-77
2021/12/26 01:54:32;;;;;;;2.20;2.10;;;;;;;11.49;82.55;98788.47;6274336;22;20007;-75
2021/12/26 01:57:01;;;;;;;2.08;1.98;;;;;;;11.51;82.79;98799.91;6274356;22;20422;-74
2021/12/26 01:59:27;;;;;;;2.03;1.92;;;;;;;11.53;82.59;98794.09;6274018;22;20010;-75
2021/12/26 02:01:55;;;;;;;1.35;1.20;;;;;;;11.56;82.28;98788.00;6245689;22;20082;-75
2021/12/26 02:04:23;;;;;;;2.35;2.20;;;;;;;11.61;82.62;98790.63;6222544;22;20003;-74
2021/12/26 02:06:49;;;;;;;2.38;1.67;;;;;;;11.63;82.42;98782.91;6274482;22;20008;-75
2021/12/26 02:09:14;;;;;;;3.25;2.90;;;;;;;11.67;82.43;98789.38;6222891;22;20590;-75
2021/12/26 02:11:41;;;;;;;3.15;2.65;;;;;;;11.69;82.60;98787.13;6274601;22;20010;-76
2021/12/26 02:14:16;;;;;;;3.78;3.00;;;;;;;11.71;82.42;98789.56;6249376;22;20089;-79
2021/12/26 02:16:42;;;;;;;2.95;2.60;;;;;;;11.70;82.43;98788.75;6223685;22;20430;-78
2021/12/26 02:19:07;;;;;;;2.78;2.25;;;;;;;11.68;81.98;98785.53;6247961;22;20010;-79
2021/12/26 02:24:24;;;;;;;1.48;1.40;;;;;;;11.72;82.30;98784.88;6243908;23;20571;-80
2021/12/26 02:29:57;;;;;;;0.50;0.50;;;;;;;11.72;82.39;98779.41;6256943;23;20039;-80
2021/12/26 02:32:30;;;;;;;0.60;0.60;;;;;;;11.66;82.38;98776.78;6259164;22;19992;-79
2021/12/26 02:34:58;;;;;;;0.52;0.50;;;;;;;11.67;82.22;98772.94;6270222;22;20004;-79
2021/12/26 02:37:26;;;;;;;0.57;0.57;;;;;;;11.73;81.89;98764.59;6267350;22;20007;-79
2021/12/26 02:40:02;;;;;;;0.60;0.60;;;;;;;11.85;82.30;98789.47;6255187;23;19996;-78
2021/12/26 02:42:38;;;;;;;0.50;0.50;;;;;;;11.79;81.91;98777.03;6242743;23;20000;-80
2021/12/26 02:45:33;;;;;;;;;;;;;;;;;;;;;
2021/12/26 02:48:10;;;;;;;0.80;0.80;;;;;;;11.85;82.19;98773.81;6244235;23;20510;-78
2021/12/26 02:50:57;;;;;;;;;;;;;;;;;;;;;
2021/12/26 02:53:28;;;;;;;0.35;0.35;;;;;;;11.93;81.73;98779.66;6245142;23;20084;-80
2021/12/26 02:55:56;;;;;;;0.77;0.77;;;;;;;11.90;81.63;98770.16;6245046;22;20000;-79
2021/12/26 02:58:25;;;;;;;0.75;0.65;;;;;;;12.04;81.60;98789.25;6239828;23;20058;-79
2021/12/26 03:00:56;;;;;;;0.57;0.57;;;;;;;12.04;81.97;98787.31;6244537;23;20003;-78
2021/12/26 03:03:25;;;;;;;0.40;0.40;;;;;;;12.00;81.59;98771.84;6237907;23;20082;-78
2021/12/26 03:06:09;;;;;;;0.30;0.30;;;;;;;12.04;81.34;98768.16;6242920;23;20020;-78
2021/12/26 03:08:37;;;;;;;0.47;0.47;;;;;;;12.11;81.59;98783.34;6217991;23;20457;-78
2021/12/26 03:11:03;;;;;;;0.50;0.50;;;;;;;11.99;81.69;98768.31;6239392;23;20012;-78
2021/12/26 03:13:31;;;;;;;0.60;0.60;;;;;;;12.00;81.29;98758.13;6243264;23;20011;-78
2021/12/26 03:16:20;;;;;;;;;;;;;;;;;;;;;
2021/12/26 03:18:55;;;;;;;0.38;0.38;;;;;;;12.07;81.14;98758.50;6244718;23;20086;-77
2021/12/26 03:21:21;;;;;;;0.35;0.35;;;;;;;12.13;81.26;98773.66;6255111;22;20008;-77
2021/12/26 03:24:05;;;;;;;;;;;;;;;;;;;;;
2021/12/26 03:26:31;;;;;;;0.35;0.35;;;;;;;12.09;81.46;98755.44;6275309;22;20078;-78
2021/12/26 03:28:57;;;;;;;0.50;0.50;;;;;;;12.07;81.07;98755.75;6272647;22;20037;-78
2021/12/26 03:31:22;;;;;;;0.40;0.40;;;;;;;12.16;80.95;98766.75;6273450;22;20318;-78
2021/12/26 03:33:48;;;;;;;1.42;0.60;;;;;;;12.02;81.42;98751.22;6221967;22;20061;-78
2021/12/26 03:36:13;;;;;;;1.13;1.13;;;;;;;12.00;81.25;98747.19;6222084;22;20053;-77
2021/12/26 03:38:39;;;;;;;0.75;0.75;;;;;;;12.10;81.31;98762.53;6220318;22;20012;-79
2021/12/26 03:41:09;;;;;;;0.55;0.55;;;;;;;12.03;81.14;98752.84;6247457;22;19999;-79
2021/12/26 03:43:35;;;;;;;0.35;0.35;;;;;;;12.11;81.73;98764.16;6244811;22;20006;-79
2021/12/26 03:46:08;;;;;;;0.60;0.60;;;;;;;12.11;81.29;98759.47;6219774;22;20035;-78
2021/12/26 03:48:36;;;;;;;0.50;0.50;;;;;;;12.10;81.32;98762.53;6223858;22;20015;-77
2021/12/26 03:51:04;;;;;;;0.75;0.75;;;;;;;12.09;81.31;98752.69;6190946;22;20073;-77
2021/12/26 03:53:31;;;;;;;0.43;0.40;;;;;;;12.16;81.19;98767.56;6247870;22;20090;-79
2021/12/26 03:55:58;;;;;;;0.35;0.35;;;;;;;12.18;80.94;98775.47;6243973;22;20011;-75
2021/12/26 03:58:23;;;;;;;0.57;0.57;;;;;;;12.09;81.50;98759.00;6245524;22;20091;-77
2021/12/26 04:00:53;;;;;;;1.73;0.68;;;;;;;12.15;81.27;98760.47;6270202;22;20077;-77
2021/12/26 04:03:22;;;;;;;1.60;0.80;;;;;;;12.18;81.26;98764.50;6272412;22;20083;-77
2021/12/26 04:05:48;;;;;;;0.90;0.80;;;;;;;12.09;81.51;98758.19;6221565;22;20018;-77
2021/12/26 04:08:16;;;;;;;0.73;0.63;;;;;;;12.13;81.20;98764.63;6243977;22;20086;-77
2021/12/26 04:10:42;;;;;;;0.95;0.73;;;;;;;12.14;81.42;98763.53;6246985;22;20094;-77
2021/12/26 04:13:11;;;;;;;0.73;0.73;;;;;;;12.05;81.01;98750.59;6270489;22;20027;-77
2021/12/26 04:15:39;;;;;;;0.60;0.60;;;;;;;12.06;81.23;98756.88;6244984;22;20007;-77
2021/12/26 04:18:04;;;;;;;2.22;0.60;;;;;;;12.03;81.44;98752.84;6244723;22;19999;-77
2021/12/26 04:20:30;;;;;;;0.50;0.50;;;;;;;12.04;81.39;98753.66;6273817;22;20003;-76
2021/12/26 04:22:56;;;;;;;1.95;1.00;;;;;;;12.02;81.42;98745.75;6248201;22;20011;-78
2021/12/26 04:25:22;;;;;;;0.73;0.73;;;;;;;12.08;81.07;98759.31;6271848;22;20365;-78
2021/12/26 04:27:48;;;;;;;0.88;0.80;;;;;;;12.03;80.90;98744.63;6243871;22;20007;-76
2021/12/26 04:30:15;;;;;;;0.93;0.70;;;;;;;12.13;81.16;98754.47;6242951;22;20316;-77
2021/12/26 04:32:46;;;;;;;0.43;0.43;;;;;;;12.07;80.93;98752.22;6274620;22;20003;-77
2021/12/26 04:35:11;;;;;;;0.40;0.40;;;;;;;11.99;81.06;98746.38;6244573;22;20027;-78
2021/12/26 04:37:37;;;;;;;2.13;1.38;;;;;;;12.01;80.91;98746.88;6246947;22;20407;-77
2021/12/26 04:40:07;;;;;;;3.50;1.77;;;;;;;12.01;80.37;98743.31;6245886;22;20088;-77
2021/12/26 04:42:32;;;;;;;2.83;1.63;;;;;;;11.99;81.12;98746.38;6273317;22;20106;-78
2021/12/26 04:45:07;;;;;;;4.22;1.70;;;;;;;11.95;80.76;98748.13;6219665;22;20311;-77
2021/12/26 04:47:36;;;;;;;0.73;0.73;;;;;;;11.92;81.44;98751.47;6245960;22;20003;-78
2021/12/26 04:50:12;;;;;;;0.82;0.82;;;;;;;11.78;81.37;98740.59;6245920;22;20792;-77
2021/12/26 04:52:40;;;;;;;0.95;0.95;;;;;;;11.88;81.04;98761.44;6272155;22;20010;-77
2021/12/26 04:55:07;;;;;;;0.60;0.60;;;;;;;11.78;81.18;98739.81;6272635;22;20008;-77
2021/12/26 04:57:38;;;;;;;0.60;0.60;;;;;;;11.86;81.48;98752.75;6273387;22;20545;-77
2021/12/26 05:00:20;;;;;;;1.13;0.75;;;;;;;11.91;81.14;98758.06;6245116;22;20407;-77
2021/12/26 05:02:48;;;;;;;3.05;1.10;;;;;;;11.88;81.16;98755.97;6244317;22;20012;-78
2021/12/26 05:05:21;;;;;;;2.00;1.30;;;;;;;11.89;80.95;98749.38;6274444;22;20388;-77
2021/12/26 05:07:58;;;;;;;1.75;1.00;;;;;;;11.92;81.41;98756.97;6243168;22;20121;-76
2021/12/26 05:10:28;;;;;;;2.70;1.85;;;;;;;11.91;81.25;98760.81;6242040;22;20027;-76
2021/12/26 05:13:00;;;;;;;4.15;2.05;;;;;;;11.81;81.17;98745.47;6243293;22;20042;-74
2021/12/26 05:15:27;;;;;;;4.60;1.27;;;;;;;11.82;80.70;98757.22;6244961;22;20007;-75
2021/12/26 05:17:54;;;;;;;1.08;1.02;;;;;;;11.66;80.91;98749.41;6272508;22;20004;-76
2021/12/26 05:20:21;;;;;;;1.27;0.82;;;;;;;11.58;81.21;98741.97;6273482;22;20050;-74
2021/12/26 05:22:49;;;;;;;0.35;0.35;;;;;;;11.54;80.50;98746.47;6272929;22;20020;-76
2021/12/26 05:25:18;;;;;;;0.38;0.38;;;;;;;11.50;80.83;98756.41;6221719;22;20495;-76
2021/12/26 05:27:56;;;;;;;0.70;0.30;;;;;;;11.42;80.73;98755.25;6242916;22;20012;-76
2021/12/26 05:30:25;;;;;;;0.30;0.28;;;;;;;11.27;81.20;98748.25;6223814;22;20069;-79
2021/12/26 05:32:56;;;;;;;0.50;0.50;;;;;;;11.23;81.10;98766.38;6268159;22;20071;-77
2021/12/26 05:35:31;;;;;;;0.30;0.30;;;;;;;11.30;81.59;98769.50;6272661;22;20008;-77
2021/12/26 05:37:57;;;;;;;;;;;;;;;11.40;81.10;98770.34;6246249;22;20441;-77
2021/12/26 05:40:32;;;;;;;;;;;;;;;11.43;80.89;98767.78;6276118;22;19907;-77
2021/12/26 05:43:10;;;;;;;;;;;;;;;;;;;;;
2021/12/26 05:45:38;;;;;;;0.20;0.20;;;;;;;11.51;81.16;98769.00;6272715;22;20090;-78
2021/12/26 05:48:07;;;;;;;0.30;0.30;;;;;;;11.44;81.16;98755.72;6246877;22;20000;-77
2021/12/26 05:50:32;;;;;;;0.13;0.13;;;;;;;11.51;80.72;98758.84;6274239;22;20004;-78
2021/12/26 05:52:58;;;;;;;0.22;0.22;;;;;;;11.61;80.71;98768.72;6246694;22;20655;-77
2021/12/26 05:55:24;;;;;;;0.30;0.30;;;;;;;11.65;80.62;98763.41;6247275;22;20008;-75
2021/12/26 05:57:51;;;;;;;1.15;0.88;;;;;;;11.70;81.01;98771.50;6242690;22;20004;-76
2021/12/26 06:00:23;;;;;;;2.53;1.70;;;;;;;11.66;80.97;98771.31;6273806;22;20027;-78
2021/12/26 06:02:55;;;;;;;4.68;2.00;;;;;;;11.66;81.00;98782.25;6246618;22;20492;-78
2021/12/26 06:05:21;;;;;;;10.07;2.25;;;;;;;11.60;80.54;98764.38;6223686;22;20008;-77
2021/12/26 06:07:49;;;;;;;2.28;1.20;;;;;;;11.53;80.92;98751.13;6271585;22;20015;-78
2021/12/26 06:10:15;;;;;;;2.08;0.77;;;;;;;11.52;80.88;98749.50;6273773;22;20007;-78
2021/12/26 06:12:53;;;;;;;1.73;1.05;;;;;;;11.59;80.91;98757.25;6273785;22;20010;-78
2021/12/26 06:15:24;;;;;;;0.95;0.40;;;;;;;11.56;81.16;98749.69;6248883;22;20066;-78
2021/12/26 06:17:50;;;;;;;0.63;0.47;;;;;;;11.61;81.14;98756.94;6245053;22;20335;-78
2021/12/26 06:20:28;;;;;;;1.77;0.47;;;;;;;11.57;80.89;98751.31;6223128;22;20011;-79
2021/12/26 06:22:57;;;;;;;3.35;1.02;;;;;;;11.64;81.36;98762.63;6245313;22;20345;-78
2021/12/26 06:25:25;;;;;;;6.38;1.83;;;;;;;11.64;80.65;98772.78;6220357;22;20092;-78
2021/12/26 06:27:56;;;;;;;8.32;1.58;;;;;;;11.60;81.04;98764.38;6221167;22;20435;-77
2021/12/26 06:30:22;;;;;;;3.55;1.00;;;;;;;11.54;80.81;98760.16;6246482;22;20379;-78
2021/12/26 06:32:47;;;;;;;1.48;1.02;;;;;;;11.58;81.14;98766.63;6247317;22;20008;-77
2021/12/26 06:35:36;;;;;;;2.35;0.85;;;;;;;11.53;80.99;98753.03;6247540;22;20094;-78
2021/12/26 06:38:15;;;;;;;;;;;;;;;;;;;;;
2021/12/26 06:40:51;;;;;;;0.88;0.88;;;;;;;11.55;81.19;98750.00;6273516;22;20437;-79
2021/12/26 06:43:41;;;;;;;;;;;;;;;;;;;;;
2021/12/26 06:46:21;;;;;;;2.10;0.70;;;;;;;11.60;80.93;98750.69;6274939;22;20070;-78
2021/12/26 06:48:55;;;;;;;0.40;0.40;;;;;;;11.63;80.94;98761.00;6245483;22;20023;-80
2021/12/26 06:51:47;;;;;;;2.00;0.57;;;;;;;11.50;80.89;98734.50;6273770;22;20008;-79
2021/12/26 06:54:28;;;;;;;;;;;;;;;;;;;;;
2021/12/26 06:57:04;;;;;;;0.28;0.20;;;;;;;11.45;80.94;98737.41;6273744;22;20381;-80
2021/12/26 06:59:51;;;;;;;3.97;1.25;;;;;;;11.55;80.75;98748.09;6244663;22;19999;-79
2021/12/26 07:02:40;;;;;;;2.72;1.08;;;;;;;11.46;81.37;98733.53;6224011;22;20011;-77
2021/12/26 07:05:08;;;;;;;6.05;1.50;;;;;;;11.43;80.75;98743.16;6250580;22;20011;-76
2021/12/26 07:07:34;;;;;;;2.67;0.98;;;;;;;11.52;81.36;98752.25;6242802;22;20007;-76
2021/12/26 07:10:04;;;;;;;1.95;1.27;;;;;;;11.59;80.88;98765.47;6272964;22;20134;-78
2021/12/26 07:12:29;;;;;;;2.80;0.95;;;;;;;11.53;80.82;98758.53;6247042;22;20011;-79
2021/12/26 07:14:57;;;;;;;2.45;1.48;;;;;;;11.56;80.80;98777.06;6247066;22;20004;-78
2021/12/26 07:17:33;;;;;;;;;;;;;;;;;;;;;
2021/12/26 07:20:26;;;;;;;;;;;;;;;;;;;;;
2021/12/26 07:23:00;;;;;;;4.15;1.20;;;;;;;11.38;80.64;98770.66;6230369;22;20501;-78
2021/12/26 07:25:28;;;;;;;3.78;1.15;;;;;;;11.38;80.52;98781.63;6246214;22;20007;-77
2021/12/26 07:27:54;;;;;;;0.82;0.65;;;;;;;11.42;80.26;98793.56;6222390;22;20011;-76
2021/12/26 07:30:37;;;;;;;4.28;0.90;;;;;;;11.38;80.38;98787.09;6271229;22;20284;-76
2021/12/26 07:33:03;;;;;;;5.65;0.88;;;;;;;11.31;80.45;98784.78;6219625;22;20011;-75
2021/12/26 07:35:36;;;;;;;6.15;0.90;;;;;;;11.37;80.64;98795.63;6254836;22;20426;-76
2021/12/26 07:38:02;;;;;;;7.93;1.40;;;;;;;11.30;80.35;98796.88;6233140;22;20011;-75
2021/12/26 07:40:27;;;;;;;3.80;0.88;;;;;;;11.25;80.13;98788.75;6260853;22;20035;-76
2021/12/26 07:42:53;;;;;;;3.35;0.93;;;;;;;11.23;80.73;98785.53;6271332;22;19999;-77
2021/12/26 07:45:19;;;;;;;9.38;1.25;;;;;;;11.26;80.67;98790.38;6268201;22;20147;-78
2021/12/26 07:47:50;;;;;;;3.70;0.70;;;;;;;11.29;80.70;98794.44;6235031;22;20042;-77
2021/12/26 07:50:16;;;;;;;6.57;0.93;;;;;;;11.29;80.34;98794.44;6220287;22;20012;-76
2021/12/26 07:53:36;;;;;;;;;;;;;;;;;;;;;
2021/12/26 07:55:37;;;;;;;2.78;1.02;;;;;;;11.19;80.83;98790.00;6244066;22;20012;-77
2021/12/26 07:58:16;;;;;;;1.45;0.65;;;;;;;11.28;80.13;98803.75;6268510;22;20007;-75
2021/12/26 08:00:50;;;;;;;4.88;0.60;;;;;;;11.25;80.30;98799.72;6245059;22;20351;-76
2021/12/26 08:03:18;;;;;;;3.38;0.98;;;;;;;11.22;80.86;98800.34;6268355;22;20007;-76
2021/12/26 08:06:07;;;;;;;1.90;0.60;;;;;;;11.17;79.99;98809.47;6240887;22;20015;-74
2021/12/26 08:08:33;;;;;;;4.60;0.77;;;;;;;11.04;79.98;98793.09;6270685;22;20004;-76
2021/12/26 08:10:58;;;;;;;2.35;0.90;;;;;;;11.03;80.48;98807.91;6268460;22;20000;-75
2021/12/26 08:13:27;;;;;;;0.85;0.50;;;;;;;11.00;80.11;98812.84;6242120;22;20069;-75
2021/12/26 08:16:36;;;;;;;5.53;1.65;;;;;;;10.97;80.12;98810.75;6268076;22;20004;-74
2021/12/26 08:19:07;;;;;;;3.50;0.93;;;;;;;10.86;80.20;98814.00;6218728;22;20015;-76
2021/12/26 08:22:22;;;;;;;;;;;;;;;;;;;;;
2021/12/26 08:25:43;;;;;;;1.83;0.75;;;;;;;10.79;80.23;98834.38;6268652;22;20095;-73
2021/12/26 08:28:53;;;;;;;;;;;;;;;;;;;;;
2021/12/26 08:32:12;;;;;;;0.77;0.55;;;;;;;10.58;80.37;98820.31;6245902;22;20012;-74
2021/12/26 08:35:28;;;;;;;;;;;;;;;;;;;;;
2021/12/26 08:38:30;;;;;;;;;;;;;;;;;;;;;
2021/12/26 08:41:36;;;;;;;;;;;;;;;;;;;;;
2021/12/26 08:44:31;;;;;;;0.55;0.43;;;;;;;10.54;80.47;98824.81;6259430;22;20039;-75
2021/12/26 08:47:23;;;;;;;0.82;0.50;;;;;;;10.46;80.46;98829.03;6224976;22;20291;-74
2021/12/26 08:52:58;;;;;;;0.70;0.70;;;;;;;10.39;80.72;98816.91;6243922;22;20008;-73
2021/12/26 08:55:46;;;;;;;0.20;0.20;;;;;;;10.41;80.59;98820.13;6244522;22;20023;-73
2021/12/26 08:58:35;;;;;;;1.17;0.60;;;;;;;10.47;80.78;98829.88;6270269;22;20628;-76
2021/12/26 09:01:37;;;;;;;1.73;0.50;;;;;;;10.60;80.55;98852.81;6244950;22;20044;-76
2021/12/26 09:04:46;;;;;;;1.27;0.60;;;;;;;10.59;81.19;98832.88;6213463;22;20014;-75
2021/12/26 09:07:24;;;;;;;;;;;;;;;;;;;;;
2021/12/26 09:09:50;;;;;;;0.28;0.20;;;;;;;10.61;81.05;98836.13;6272771;22;20079;-76
2021/12/26 09:12:32;;;;;;;0.10;0.10;;;;;;;10.65;80.55;98831.66;6245959;22;20371;-76
2021/12/26 09:22:05;;;;;;;0.10;0.10;;;;;;;10.88;80.27;98850.88;6107287;23;20029;-76
2021/12/26 09:25:20;;;;;;;0.10;0.10;;;;;;;10.88;80.98;98852.78;6123320;23;20005;-76
2021/12/26 09:36:00;;;;;;;;;;;;;;;;;;;;;
2021/12/26 09:41:57;;;;;;;;;;;;;;;;;;;;;
2021/12/26 10:47:16;;;;;;;;;;;;;;;;;;;;;
2021/12/26 10:50:38;;;;;;;1.02;0.50;;;;;;;13.74;76.75;98883.00;5850219;24;20097;-77
2021/12/26 10:53:57;;;;;;;;;;;;;;;;;;;;;
2021/12/26 11:03:27;;;;;;;2.90;0.82;;;;;;;13.69;75.19;98853.78;5840140;24;20029;-77
2021/12/26 11:12:04;;;;;;;1.17;0.82;;;;;;;13.41;74.51;98854.13;6134996;23;20134;-75
2021/12/26 11:14:30;;;;;;;1.10;0.88;;;;;;;13.28;74.65;98844.06;6211695;23;20143;-75
2021/12/26 11:17:01;;;;;;;1.10;0.60;;;;;;;13.21;74.41;98855.53;6184731;23;20423;-76
2021/12/26 11:30:11;;;;;;;0.57;0.10;;;;;;;13.36;75.07;98851.53;6125436;23;20028;-75
2021/12/26 11:33:00;;;;;;;;;;;;;;;;;;;;;
2021/12/26 11:38:57;;;;;;;0.82;0.30;;;;;;;13.61;74.41;98843.63;6179671;23;20008;-77
2021/12/26 11:41:45;;;;;;;2.33;0.35;;;;;;;13.56;74.32;98832.78;6261470;22;20325;-76
2021/12/26 11:44:46;;;;;;;1.38;0.55;;;;;;;13.61;74.07;98860.91;6245086;22;20527;-77
2021/12/26 11:47:46;;;;;;;5.03;0.80;;;;;;;13.44;73.34;98853.47;6247495;22;20006;-78
2021/12/26 11:50:44;;;;;;;;;;;;;;;;;;;;;
2021/12/26 11:54:05;;;;;;;;;;;;;;;;;;;;;
2021/12/26 11:57:51;;;;;;;0.80;0.30;;;;;;;13.52;74.63;98851.03;6271593;22;20658;-75
2021/12/26 12:00:37;;;;;;;1.13;0.38;;;;;;;13.69;74.62;98831.81;6265442;22;20003;-76
2021/12/26 12:03:56;;;;;;;;;;;;;;;;;;;;;
2021/12/26 12:06:46;;;;;;;;;;;;;;;;;;;;;
2021/12/26 12:10:29;;;;;;;;;;;;;;;;;;;;;
2021/12/26 12:13:44;;;;;;;;;;;;;;;;;;;;;
2021/12/26 12:16:37;;;;;;;5.57;0.90;;;;;;;13.56;73.34;98839.09;6139953;23;20096;-75
2021/12/26 12:20:08;;;;;;;;;;;;;;;;;;;;;
2021/12/26 12:22:55;;;;;;;1.42;0.68;;;;;;;13.33;73.74;98827.47;6143693;23;20108;-75
2021/12/26 12:29:39;;;;;;;0.88;0.63;;;;;;;13.46;73.90;98836.66;6091147;23;20057;-77
2021/12/26 12:32:30;;;;;;;0.57;0.50;;;;;;;13.33;74.17;98808.25;6124443;23;20426;-77
2021/12/26 12:35:29;;;;;;;1.15;0.50;;;;;;;13.49;73.92;98832.47;6237013;23;20652;-77
2021/12/26 12:38:08;;;;;;;;;;;;;;;;;;;;;
2021/12/26 12:41:10;;;;;;;;;;;;;;;;;;;;;
2021/12/26 12:47:40;;;;;;;0.75;0.40;;;;;;;13.38;73.77;98821.81;6090399;23;20012;-78
2021/12/26 12:54:31;;;;;;;1.13;0.38;;;;;;;13.27;73.07;98810.34;6065039;23;20022;-75
2021/12/26 12:57:21;;;;;;;2.20;0.70;;;;;;;13.19;73.42;98829.56;6070504;23;20019;-78
2021/12/26 13:10:24;;;;;;;3.38;0.80;;;;;;;12.52;74.56;98807.66;6209599;22;20444;-77
2021/12/26 13:36:07;;;;;;;;;;;;;;;;;;;;;
2021/12/26 13:42:52;;;;;;;0.10;0.00;;;;;;;20.14;66.25;98804.59;5929681;24;20480;-76
2021/12/26 13:46:04;;;;;;;;;;;;;;;;;;;;;
2021/12/26 13:48:46;;;;;;;;;;;;;;;;;;;;;
2021/12/26 13:55:12;;;;;;;1.13;0.10;;;;;;;26.14;49.63;98824.31;6115268;23;20031;-74
2021/12/26 13:58:36;;;;;;;;;;;;;;;;;;;;;
2021/12/26 14:01:13;;;;;;;0.77;0.20;;;;;;;26.94;42.53;98830.06;6215649;23;20091;-74
2021/12/26 14:03:59;;;;;;;;;;;;;;;;;;;;;
2021/12/26 14:06:29;;;;;;;0.32;0.20;;;;;;;26.68;40.08;98820.28;6250627;23;20027;-76
2021/12/26 14:08:57;;;;;;;0.60;0.15;;;;;;;26.92;39.81;98810.84;6250366;23;20030;-78
2021/12/26 14:11:42;;;;;;;0.70;0.20;;;;;;;27.42;39.62;98811.53;6247658;23;20449;-77
2021/12/26 14:14:08;;;;;;;0.10;0.10;;;;;;;27.77;38.99;98806.66;6227368;23;20053;-75
2021/12/26 14:16:41;;;;;;;1.45;0.20;;;;;;;27.76;35.62;98805.88;6225644;23;20008;-76
2021/12/26 14:19:11;;;;;;;0.88;0.20;;;;;;;27.33;35.20;98807.22;6223689;23;20004;-75
2021/12/26 14:21:53;;;;;;;0.82;0.60;;;;;;;27.11;35.90;98811.47;6223949;23;20008;-75
2021/12/26 14:24:28;;;;;;;1.48;0.20;;;;;;;27.05;35.33;98794.28;6223678;23;20004;-76
2021/12/26 14:26:56;;;;;;;0.40;0.30;;;;;;;27.00;35.26;98778.72;6225287;22;20026;-76
2021/12/26 14:29:24;;;;;;;2.90;0.35;;;;;;;26.95;34.55;98781.19;6280552;22;20074;-75
2021/12/26 14:31:52;;;;;;;3.35;0.32;;;;;;;26.14;34.50;98785.09;6252896;22;20004;-75
2021/12/26 14:34:26;;;;;;;0.43;0.30;;;;;;;24.20;36.57;98781.69;6245940;22;20007;-76
2021/12/26 14:36:53;;;;;;;0.60;0.40;;;;;;;22.21;40.33;98781.09;6274644;22;20000;-76
2021/12/26 14:39:33;;;;;;;1.83;0.50;;;;;;;20.42;43.31;98772.16;6247725;22;20010;-76
2021/12/26 14:42:09;;;;;;;0.93;0.65;;;;;;;19.16;46.77;98776.19;6247438;22;20110;-75
2021/12/26 14:44:52;;;;;;;1.42;0.40;;;;;;;18.41;49.75;98775.25;6250097;22;20043;-76
2021/12/26 14:47:30;;;;;;;1.35;0.40;;;;;;;19.04;49.89;98773.53;6281603;22;20051;-76
2021/12/26 14:50:05;;;;;;;2.25;0.45;;;;;;;20.28;48.42;98790.19;6284409;22;19991;-76
2021/12/26 14:52:31;;;;;;;;;;;;;;;21.68;46.57;98787.75;6296632;22;19995;-76
2021/12/26 14:54:57;;;;;;;;;;;;;;;22.65;44.61;98785.84;6297951;22;19925;-75
2021/12/26 14:57:28;;;;;;;0.50;0.25;;;;;;;23.12;43.07;98792.53;6289654;22;20248;-76
2021/12/26 15:00:09;;;;;;;0.47;0.25;;;;;;;23.28;41.67;98792.19;6253623;22;20008;-76
2021/12/26 15:02:45;;;;;;;1.10;0.40;;;;;;;23.07;40.47;98812.41;6279204;22;20000;-76
2021/12/26 15:05:22;;;;;;;0.43;0.17;;;;;;;21.71;41.81;98806.44;6280065;22;19995;-75
2021/12/26 15:07:49;;;;;;;1.42;1.33;;;;;;;20.59;44.26;98807.72;6275549;22;20003;-76
2021/12/26 15:10:17;;;;;;;3.22;2.92;;;;;;;19.51;45.99;98805.78;6272982;22;19999;-77
2021/12/26 15:12:48;;;;;;;5.00;2.80;;;;;;;18.47;48.03;98807.03;6246259;22;19999;-75
2021/12/26 15:15:33;;;;;;;2.88;2.42;;;;;;;17.49;49.41;98798.16;6244011;22;20003;-76
2021/12/26 15:17:59;;;;;;;2.73;2.63;;;;;;;16.84;51.49;98796.25;6246731;22;20008;-75
2021/12/26 15:20:30;;;;;;;2.30;1.75;;;;;;;16.62;53.92;98797.53;6248094;22;20022;-74
2021/12/26 15:23:10;;;;;;;0.73;0.73;;;;;;;16.73;53.49;98786.81;6272550;22;20004;-76
2021/12/26 15:25:45;;;;;;;1.20;0.65;;;;;;;16.39;52.99;98775.13;6243303;22;20376;-75
2021/12/26 15:28:20;;;;;;;0.40;0.40;;;;;;;15.93;53.85;98797.28;6271898;22;20028;-76
2021/12/26 15:30:59;;;;;;;0.40;0.30;;;;;;;15.44;54.79;98789.63;6271227;22;20003;-75
2021/12/26 15:33:38;;;;;;;0.45;0.22;;;;;;;14.95;55.41;98783.88;6272522;22;20004;-76
2021/12/26 15:36:07;;;;;;;0.28;0.28;;;;;;;14.59;56.38;98785.25;6245121;22;21071;-74
2021/12/26 15:38:35;;;;;;;0.60;0.32;;;;;;;14.28;57.10;98786.34;6270332;22;20004;-76
2021/12/26 15:41:00;;;;;;;1.92;1.17;;;;;;;14.00;57.68;98786.78;6271376;22;20015;-75
2021/12/26 15:43:26;;;;;;;3.10;1.40;;;;;;;13.73;58.36;98785.28;6272623;22;20140;-75
2021/12/26 15:45:51;;;;;;;0.93;0.82;;;;;;;13.54;59.14;98780.13;6243100;22;20007;-78
2021/12/26 15:48:17;;;;;;;1.02;0.73;;;;;;;13.41;59.23;98777.25;6243870;22;20031;-77
2021/12/26 15:50:42;;;;;;;0.80;0.65;;;;;;;13.28;59.98;98769.97;6272564;22;20082;-75
2021/12/26 15:53:08;;;;;;;0.70;0.40;;;;;;;13.19;60.22;98782.91;6244005;22;20007;-76
2021/12/26 15:55:33;;;;;;;1.00;0.38;;;;;;;13.07;60.09;98778.84;6271380;22;20011;-73
2021/12/26 15:57:59;;;;;;;0.57;0.20;;;;;;;12.95;60.33;98775.94;6268539;22;20008;-76
2021/12/26 16:00:25;;;;;;;0.70;0.55;;;;;;;12.78;60.89;98781.44;6272150;22;19999;-77
2021/12/26 16:02:51;;;;;;;0.45;0.45;;;;;;;12.59;61.18;98790.75;6269923;22;20011;-75
2021/12/26 16:05:17;;;;;;;0.93;0.80;;;;;;;12.39;61.70;98784.72;6241252;22;20015;-75
2021/12/26 16:07:43;;;;;;;1.77;1.67;;;;;;;12.26;62.39;98788.38;6217268;22;20030;-77
2021/12/26 16:10:08;;;;;;;2.88;1.83;;;;;;;12.14;62.51;98790.94;6245789;22;20000;-77
2021/12/26 16:12:34;;;;;;;3.90;1.85;;;;;;;11.99;63.03;98795.69;6272116;22;20098;-75
2021/12/26 16:15:00;;;;;;;2.17;1.70;;;;;;;11.84;62.80;98785.09;6266499;22;20014;-75